| time (UTC) | temp F | wind direction | speed knots | gust knots | rain 1hr in | rain 24hr in | rain mn in | humidity % | barometer mb |
| 20260508053016 | 44 | 0.0 | 0.0 | 0.00 | 0.00 | 0.00 | 78 | 1011.3 | |
| 20260508050016 | 44 | 0.0 | 0.9 | 0.00 | 0.00 | 0.00 | 76 | 1011.4 | |
| 20260508043036 | 41 | 0.0 | 0.9 | 0.00 | 0.00 | 0.00 | 78 | 1011.4 | |
| 20260508040016 | 39 | 0.0 | 0.0 | 0.00 | 0.00 | 0.00 | 79 | 1011.3 | |
| 20260508033017 | 40 | 0.0 | 0.0 | 0.00 | 0.00 | 0.00 | 78 | 1011.2 | |
| 20260508030057 | 42 | 0.0 | 0.0 | 0.00 | 0.00 | 0.00 | 74 | 1011.3 | |
| 20260508023016 | 42 | 0.0 | 0.0 | 0.00 | 0.00 | 0.00 | 71 | 1011.3 | |
| 20260508020016 | 44 | 0.0 | 0.0 | 0.00 | 0.00 | 0.00 | 69 | 1011.2 | |
| 20260508013016 | 45 | 0.0 | 0.9 | 0.00 | 0.00 | 0.00 | 64 | 1011.0 | |
| 20260508010036 | 48 | 0.0 | 3.5 | 0.00 | 0.00 | 0.00 | 58 | 1010.9 | |
| 20260508003016 | 49 | 90 | 0.9 | 7.0 | 0.00 | 0.00 | 0.00 | 52 | 1010.8 |
| 20260508000017 | 51 | 90 | 2.6 | 8.7 | 0.00 | 0.00 | 0.00 | 49 | 1010.6 |
| 20260507233016 | 52 | 113 | 2.6 | 9.6 | 0.00 | 0.00 | 0.00 | 47 | 1010.5 |
| 20260507230036 | 53 | 113 | 3.5 | 11.3 | 0.00 | 0.00 | 0.00 | 45 | 1010.7 |
| 20260507223017 | 54 | 113 | 3.5 | 13.0 | 0.00 | 0.00 | 0.00 | 44 | 1010.7 |
| 20260507220016 | 55 | 113 | 3.5 | 11.3 | 0.00 | 0.00 | 0.00 | 48 | 1010.5 |
| 20260507213016 | 54 | 90 | 2.6 | 10.4 | 0.00 | 0.00 | 0.00 | 53 | 1010.5 |
| 20260507210037 | 51 | 90 | 2.6 | 9.6 | 0.00 | 0.00 | 0.00 | 56 | 1010.1 |
| 20260507203016 | 51 | 90 | 2.6 | 13.0 | 0.00 | 0.00 | 0.00 | 58 | 1010.0 |
| 20260507200016 | 55 | 135 | 2.6 | 9.6 | 0.00 | 0.00 | 0.00 | 53 | 1010.1 |
| 20260507193037 | 55 | 113 | 2.6 | 10.4 | 0.00 | 0.00 | 0.00 | 50 | 1010.4 |
| 20260507190037 | 55 | 135 | 2.6 | 7.8 | 0.00 | 0.00 | 0.00 | 49 | 1010.5 |
| 20260507183016 | 55 | 135 | 2.6 | 11.3 | 0.00 | 0.00 | 0.00 | 45 | 1010.7 |
| 20260507180036 | 55 | 113 | 2.6 | 8.7 | 0.00 | 0.00 | 0.00 | 48 | 1010.7 |
| 20260507173036 | 55 | 135 | 2.6 | 12.2 | 0.00 | 0.00 | 0.00 | 50 | 1010.9 |
| 20260507170017 | 54 | 135 | 2.6 | 10.4 | 0.00 | 0.00 | 0.00 | 54 | 1011.0 |
| 20260507163036 | 55 | 135 | 2.6 | 7.8 | 0.00 | 0.00 | 0.00 | 48 | 1011.0 |
| 20260507160017 | 54 | 113 | 1.7 | 9.6 | 0.00 | 0.00 | 0.00 | 53 | 1010.9 |
| 20260507153037 | 53 | 90 | 1.7 | 7.0 | 0.00 | 0.00 | 0.00 | 56 | 1011.0 |
| 20260507150037 | 53 | 113 | 1.7 | 7.8 | 0.00 | 0.00 | 0.00 | 55 | 1011.0 |
| 20260507143016 | 54 | 113 | 0.9 | 6.1 | 0.00 | 0.00 | 0.00 | 54 | 1011.1 |
| 20260507140037 | 53 | 113 | 0.9 | 5.2 | 0.00 | 0.00 | 0.00 | 66 | 1011.4 |
| 20260507133016 | 52 | 113 | 0.9 | 4.3 | 0.00 | 0.00 | 0.00 | 68 | 1011.6 |
| 20260507130016 | 50 | 0.0 | 2.6 | 0.00 | 0.00 | 0.00 | 69 | 1011.7 | |
| 20260507123016 | 47 | 0.0 | 3.5 | 0.00 | 0.00 | 0.00 | 74 | 1011.6 | |
| 20260507120016 | 44 | 0.0 | 1.7 | 0.00 | 0.00 | 0.00 | 81 | 1011.3 | |
| 20260507113016 | 42 | 0.0 | 0.9 | 0.00 | 0.00 | 0.00 | 86 | 1011.2 | |
| 20260507110057 | 41 | 0.0 | 0.0 | 0.00 | 0.00 | 0.00 | 88 | 1010.8 | |
| 20260507103016 | 40 | 0.0 | 0.0 | 0.00 | 0.00 | 0.00 | 89 | 1010.6 | |
| 20260507100016 | 39 | 0.0 | 0.0 | 0.00 | 0.00 | 0.00 | 89 | 1010.6 | |
| 20260507093036 | 40 | 0.0 | 0.9 | 0.00 | 0.01 | 0.00 | 88 | 1010.6 | |
| 20260507090016 | 40 | 0.0 | 0.9 | 0.00 | 0.03 | 0.00 | 89 | 1010.7 | |
| 20260507083016 | 39 | 0.0 | 0.9 | 0.00 | 0.04 | 0.00 | 90 | 1010.8 | |
| 20260507080016 | 39 | 0.0 | 0.9 | 0.00 | 0.06 | 0.00 | 90 | 1010.9 | |
| 20260507073016 | 39 | 0.0 | 0.0 | 0.00 | 0.06 | 0.00 | 89 | 1010.9 | |
| 20260507070016 | 39 | 0.0 | 0.9 | 0.00 | 0.06 | 0.00 | 89 | 1011.0 | |
| 20260507063016 | 39 | 0.0 | 0.9 | 0.00 | 0.07 | 0.00 | 89 | 1011.1 | |
| 20260507060036 | 40 | 0.0 | 0.9 | 0.00 | 0.08 | 0.00 | 88 | 1011.5 |